Time;durP1;ratioP1;P1;durP2;ratioP2;P2;SDS_P1;SDS_P2;PMS_P1;PMS_P2;Temp;Humidity;BMP_temperature;BMP_pressure;BME280_temperature;BME280_humidity;BME280_pressure;Samples;Min_cycle;Max_cycle;Signal;HPM_P1;HPM_P2
2023/07/13 00:00:52;;;;;;;3.45;2.53;;;;;;;-145.68;69.33;72950.16;10451174;28;20303;-68
2023/07/13 00:06:00;;;;;;;3.88;2.53;;;;;;;-145.68;69.11;72966.16;10443460;28;20212;-68
2023/07/13 00:11:03;;;;;;;4.38;2.33;;;;;;;-145.68;67.42;72962.16;10417691;28;20208;-68
2023/07/13 00:16:04;;;;;;;4.78;2.85;;;;;;;-145.68;70.12;72990.13;10417771;28;20245;-68
2023/07/13 00:21:07;;;;;;;5.03;2.95;;;;;;;-145.68;76.07;73048.09;10417130;28;20891;-68
2023/07/13 00:26:09;;;;;;;3.00;2.67;;;;;;;-145.68;85.88;73100.06;10417216;28;20716;-69
2023/07/13 00:31:11;;;;;;;10.60;4.28;;;;;;;-145.68;100.00;73120.03;10399235;28;20224;-69
2023/07/13 00:36:11;;;;;;;8.70;3.65;;;;;;;-145.68;100.00;73194.00;10416694;28;20652;-69
2023/07/13 00:41:11;;;;;;;4.53;3.42;;;;;;;-145.68;100.00;73269.94;10416472;28;20232;-69
2023/07/13 00:46:12;;;;;;;8.30;3.72;;;;;;;-145.68;100.00;73263.94;10398470;28;20291;-69
2023/07/13 00:51:13;;;;;;;4.50;3.92;;;;;;;-145.68;100.00;73273.94;10416328;28;20208;-68
2023/07/13 00:56:15;;;;;;;5.65;4.20;;;;;;;-145.68;100.00;73285.94;10398526;28;20188;-67
2023/07/13 01:01:15;;;;;;;8.10;4.75;;;;;;;-145.68;100.00;73301.91;10415488;28;20687;-68
2023/07/13 01:06:17;;;;;;;5.70;4.57;;;;;;;-145.68;100.00;73303.91;10415536;28;21464;-68
2023/07/13 01:11:20;;;;;;;6.40;4.22;;;;;;;-145.68;100.00;73319.91;10415235;28;20216;-67
2023/07/13 01:16:29;;;;;;;7.65;4.63;;;;;;;-145.68;100.00;73345.88;10415057;28;20185;-68
2023/07/13 01:21:32;;;;;;;7.68;5.25;;;;;;;-145.68;100.00;73363.88;10397137;28;20331;-67
2023/07/13 01:26:33;;;;;;;8.25;5.60;;;;;;;-145.68;100.00;73375.88;10414595;28;20600;-68
2023/07/13 01:31:33;;;;;;;6.70;5.35;;;;;;;-145.68;100.00;73375.88;10414746;28;20208;-67
2023/07/13 01:36:34;;;;;;;5.28;4.78;;;;;;;-145.68;100.00;73385.88;10414229;28;20243;-67
2023/07/13 01:41:34;;;;;;;5.70;4.82;;;;;;;-145.68;100.00;73397.84;10414135;28;20224;-67
2023/07/13 01:46:35;;;;;;;6.10;5.03;;;;;;;-145.68;100.00;73397.84;10413798;28;20221;-67
2023/07/13 01:51:35;;;;;;;6.32;5.65;;;;;;;-145.68;100.00;73403.84;10413657;28;20224;-66
2023/07/13 01:56:36;;;;;;;8.48;5.53;;;;;;;-145.68;100.00;73409.84;10413849;28;20201;-67
2023/07/13 02:01:36;;;;;;;9.07;5.55;;;;;;;-145.68;100.00;73397.84;10395393;28;20697;-66
2023/07/13 02:06:36;;;;;;;8.20;6.13;;;;;;;-145.68;100.00;73423.84;10395636;28;20212;-66
2023/07/13 02:11:37;;;;;;;7.07;5.57;;;;;;;-145.68;100.00;73419.84;10412839;28;20303;-66
2023/07/13 02:16:37;;;;;;;7.18;5.88;;;;;;;-145.68;100.00;73423.84;10413100;28;20184;-66
2023/07/13 02:21:38;;;;;;;8.73;6.95;;;;;;;-145.68;100.00;73427.84;10412596;28;20228;-66
2023/07/13 02:26:38;;;;;;;8.18;5.70;;;;;;;-145.68;100.00;73423.84;10411649;28;20224;-66
2023/07/13 02:31:39;;;;;;;11.95;6.95;;;;;;;-145.68;100.00;73429.84;10412289;28;20853;-66
2023/07/13 02:36:39;;;;;;;7.28;6.47;;;;;;;-145.68;100.00;73423.84;10412090;28;20626;-66
2023/07/13 02:41:40;;;;;;;7.30;6.63;;;;;;;-145.68;100.00;73427.84;10411824;28;20232;-67
2023/07/13 02:46:40;;;;;;;7.25;5.90;;;;;;;-145.68;100.00;73415.84;10411699;28;20235;-67
2023/07/13 02:51:40;;;;;;;7.07;6.35;;;;;;;-145.68;100.00;73405.84;10411628;28;20211;-67
2023/07/13 02:56:43;;;;;;;8.20;5.82;;;;;;;-145.68;100.00;73409.84;10411497;28;20185;-67
2023/07/13 03:01:43;;;;;;;6.72;5.95;;;;;;;-145.68;100.00;73415.84;10393419;28;20215;-67
2023/07/13 03:06:45;;;;;;;9.10;6.63;;;;;;;-145.68;100.00;73411.84;10411670;28;20251;-67
2023/07/13 03:11:45;;;;;;;7.47;6.68;;;;;;;-145.68;100.00;73431.84;10393333;28;20243;-67
2023/07/13 03:16:57;;;;;;;6.65;6.05;;;;;;;-145.68;100.00;73425.84;10393329;28;20238;-67
2023/07/13 03:22:01;;;;;;;7.82;6.25;;;;;;;-145.68;100.00;73425.84;10393282;28;20248;-67
2023/07/13 03:27:04;;;;;;;8.43;5.85;;;;;;;-145.68;100.00;73429.84;10393019;28;20215;-67
2023/07/13 03:32:06;;;;;;;7.05;6.35;;;;;;;-145.68;100.00;73431.84;10409418;28;20320;-68
2023/07/13 03:37:07;;;;;;;6.35;5.68;;;;;;;-145.68;100.00;73437.84;10392983;28;20195;-68
2023/07/13 03:42:09;;;;;;;6.82;6.22;;;;;;;-145.68;100.00;73433.84;10400219;28;20239;-68
2023/07/13 03:47:10;;;;;;;8.15;7.10;;;;;;;-145.68;100.00;73445.81;10401000;28;20216;-68
2023/07/13 03:52:11;;;;;;;11.15;6.18;;;;;;;-145.68;100.00;73443.84;10418340;28;20686;-68
2023/07/13 03:57:11;;;;;;;8.35;6.68;;;;;;;-145.68;100.00;73449.81;10418503;28;20180;-68
2023/07/13 04:02:12;;;;;;;6.50;5.85;;;;;;;-145.68;100.00;73459.81;10400056;28;20690;-68
2023/07/13 04:07:13;;;;;;;6.93;6.32;;;;;;;-145.68;100.00;73459.81;10417936;28;20308;-68
2023/07/13 04:12:14;;;;;;;6.38;5.68;;;;;;;-145.68;100.00;73453.81;10400067;28;20307;-68
2023/07/13 04:17:16;;;;;;;6.97;6.28;;;;;;;-145.68;100.00;73449.81;10399801;28;20192;-68
2023/07/13 04:22:16;;;;;;;5.82;5.32;;;;;;;-145.68;100.00;73429.84;10417415;28;20211;-68
2023/07/13 04:27:17;;;;;;;5.53;5.00;;;;;;;-145.68;100.00;73427.84;10416966;28;20216;-68
2023/07/13 04:32:17;;;;;;;6.22;5.20;;;;;;;-145.68;100.00;73431.84;10417030;28;20220;-68
2023/07/13 04:37:18;;;;;;;8.50;6.38;;;;;;;-145.68;100.00;73427.84;10416743;28;20195;-68
2023/07/13 04:42:18;;;;;;;6.75;5.28;;;;;;;-145.68;100.00;73415.84;10437085;22;20240;-65
2023/07/13 04:47:19;;;;;;;5.75;5.25;;;;;;;-145.68;100.00;73419.84;10415688;28;20262;-66
2023/07/13 04:52:19;;;;;;;5.93;5.35;;;;;;;-145.68;100.00;73423.84;10415012;28;20219;-65
2023/07/13 04:57:20;;;;;;;6.20;5.35;;;;;;;-145.68;100.00;73421.84;10416173;28;20196;-65
2023/07/13 05:02:21;;;;;;;6.15;5.07;;;;;;;-145.68;100.00;73411.84;10415680;28;20208;-67
2023/07/13 05:07:21;;;;;;;10.68;5.85;;;;;;;-145.68;100.00;73415.84;10415631;28;20617;-67
2023/07/13 05:12:22;;;;;;;7.45;4.97;;;;;;;-145.68;100.00;73387.88;10415528;28;20212;-67
2023/07/13 05:17:22;;;;;;;6.95;5.55;;;;;;;-145.68;100.00;73359.88;10415100;28;20246;-66
2023/07/13 05:22:23;;;;;;;9.40;5.50;;;;;;;-145.68;100.00;73341.91;10415062;28;20267;-66
2023/07/13 05:27:23;;;;;;;7.10;4.85;;;;;;;-145.68;100.00;73323.91;10414751;28;20296;-66
2023/07/13 05:32:23;;;;;;;6.18;4.47;;;;;;;-145.68;100.00;73275.94;10414872;28;20668;-62
2023/07/13 05:37:24;;;;;;;5.40;4.63;;;;;;;-145.68;100.00;73223.97;10414617;28;20640;-64
2023/07/13 05:42:24;;;;;;;4.60;4.20;;;;;;;-145.68;100.00;73176.00;10414096;28;20622;-64
2023/07/13 05:47:25;;;;;;;4.82;4.32;;;;;;;-145.68;100.00;73136.03;10414070;28;20639;-65
2023/07/13 05:52:25;;;;;;;4.10;3.72;;;;;;;-145.68;100.00;73148.03;10396007;28;20605;-64
2023/07/13 05:57:25;;;;;;;5.35;3.92;;;;;;;-145.68;100.00;73146.03;10413168;28;20268;-64
2023/07/13 06:02:28;;;;;;;5.53;3.83;;;;;;;-145.68;100.00;73140.03;10412288;28;20239;-65
2023/07/13 06:07:28;;;;;;;5.30;4.18;;;;;;;-145.68;100.00;73084.06;10413025;28;20205;-65
2023/07/13 06:12:28;;;;;;;7.47;4.30;;;;;;;-145.68;100.00;73060.09;10412855;28;20204;-64
2023/07/13 06:17:29;;;;;;;4.13;3.72;;;;;;;-145.68;100.00;73004.13;10412975;28;20204;-63
2023/07/13 06:22:29;;;;;;;5.68;3.20;;;;;;;-145.68;100.00;72944.16;10412541;28;20220;-64
2023/07/13 06:27:29;;;;;;;4.10;2.80;;;;;;;-145.68;93.86;72886.22;10412482;28;20221;-64
2023/07/13 06:32:30;;;;;;;5.72;2.97;;;;;;;-145.68;84.58;72796.28;10412215;28;20254;-65
2023/07/13 06:37:30;;;;;;;6.32;3.10;;;;;;;-145.68;73.88;72692.38;10412000;28;20193;-64
2023/07/13 06:42:30;;;;;;;7.40;2.60;;;;;;;-145.68;67.60;72654.41;10405197;28;20236;-66
2023/07/13 06:47:31;;;;;;;3.55;1.75;;;;;;;-145.68;55.41;72444.56;10409948;28;20232;-64
2023/07/13 06:52:31;;;;;;;1.50;1.40;;;;;;;-145.68;48.55;72270.72;10409368;28;20216;-65
2023/07/13 06:57:32;;;;;;;5.82;1.73;;;;;;;-145.68;50.00;72448.56;10409731;28;20199;-65
2023/07/13 07:02:32;;;;;;;2.90;1.65;;;;;;;-145.68;50.57;72454.56;10409770;28;20201;-64
2023/07/13 07:07:32;;;;;;;3.05;1.50;;;;;;;-145.68;53.14;72540.50;10409444;28;20224;-65
2023/07/13 07:12:33;;;;;;;5.47;1.95;;;;;;;-145.68;51.63;72484.53;10408287;28;20212;-64
2023/07/13 07:17:33;;;;;;;4.50;1.80;;;;;;;-145.68;52.04;72648.41;10408693;28;20193;-65
2023/07/13 07:22:33;;;;;;;5.90;1.85;;;;;;;-145.68;46.39;72300.69;10407757;28;20227;-64
2023/07/13 07:27:34;;;;;;;2.00;1.23;;;;;;;-145.68;46.26;72280.72;10408716;28;20219;-64
2023/07/13 07:32:34;;;;;;;2.08;1.45;;;;;;;-145.68;42.04;72040.94;10408461;28;20702;-64
2023/07/13 07:37:34;;;;;;;2.78;1.50;;;;;;;-145.68;41.02;71996.97;10409336;28;20543;-63
2023/07/13 07:42:35;;;;;;;3.60;1.20;;;;;;;-145.68;39.57;71945.03;10408484;28;20245;-64
2023/07/13 07:47:35;;;;;;;3.03;1.40;;;;;;;-145.68;39.50;71971.00;10408757;28;20217;-64
2023/07/13 07:52:36;;;;;;;2.67;1.43;;;;;;;-145.68;40.87;72062.91;10408234;28;20528;-64
2023/07/13 07:57:36;;;;;;;6.07;1.70;;;;;;;-145.68;41.93;72032.94;10406186;28;20439;-62
2023/07/13 08:02:36;;;;;;;3.50;1.85;;;;;;;-145.68;40.32;71849.13;10406887;28;20242;-64
2023/07/13 08:07:38;;;;;;;6.23;2.20;;;;;;;-145.68;41.35;71893.09;10406790;28;20216;-64
2023/07/13 08:12:39;;;;;;;4.85;3.00;;;;;;;-145.68;42.41;71993.00;10407173;28;20458;-63
2023/07/13 08:17:40;;;;;;;5.80;2.20;;;;;;;-145.68;42.70;71985.00;10407768;28;20193;-64
2023/07/13 08:22:40;;;;;;;4.70;3.38;;;;;;;-145.68;43.99;72104.88;10407840;28;20588;-63
2023/07/13 08:27:40;;;;;;;4.38;1.88;;;;;;;-145.68;41.26;72164.81;10411138;28;20287;-64
2023/07/13 08:32:41;;;;;;;4.67;2.40;;;;;;;-145.68;41.81;72062.91;10415066;28;20212;-64
2023/07/13 08:37:41;;;;;;;3.67;1.70;;;;;;;-145.68;41.28;71893.09;10415669;28;20535;-64
2023/07/13 08:42:46;;;;;;;5.00;2.05;;;;;;;-145.68;38.96;71757.22;10414584;28;20479;-64
2023/07/13 08:48:11;;;;;;;3.80;1.60;;;;;;;-145.68;36.30;71683.31;10397305;28;20213;-63
2023/07/13 08:53:13;;;;;;;4.20;1.58;;;;;;;-145.68;36.82;71867.13;10373312;28;20321;-64
2023/07/13 08:58:17;;;;;;;2.72;1.10;;;;;;;-145.68;36.14;71851.13;10375801;28;20201;-64
2023/07/13 09:03:22;;;;;;;6.43;1.48;;;;;;;-145.68;35.65;71917.06;10396621;28;20698;-63
2023/07/13 09:08:56;;;;;;;3.90;1.45;;;;;;;-145.68;40.08;72222.78;10413890;28;20311;-63
2023/07/13 09:14:26;;;;;;;2.63;1.30;;;;;;;-145.68;37.83;71973.00;10396282;28;20224;-64
2023/07/13 09:19:28;;;;;;;2.40;1.40;;;;;;;-145.68;36.80;71903.06;10413906;28;20200;-64
2023/07/13 09:24:36;;;;;;;3.55;1.27;;;;;;;-145.68;36.39;72024.97;10396205;28;20224;-65
2023/07/13 09:29:36;;;;;;;8.65;1.50;;;;;;;-145.68;37.48;72236.75;10411645;28;20298;-65
2023/07/13 09:34:37;;;;;;;3.28;1.40;;;;;;;-145.68;38.40;72180.81;10411864;28;20543;-64
2023/07/13 09:39:41;;;;;;;2.70;1.30;;;;;;;-145.68;36.42;71937.03;10411301;28;20297;-63
2023/07/13 09:44:48;;;;;;;3.38;1.05;;;;;;;-145.68;35.11;71823.16;10394318;28;20440;-63
2023/07/13 09:49:55;;;;;;;2.85;1.10;;;;;;;-145.68;35.49;71859.13;10409672;28;20601;-62
2023/07/13 09:54:58;;;;;;;2.28;1.15;;;;;;;-145.68;36.77;71885.09;10412919;28;20185;-64
2023/07/13 10:00:00;;;;;;;6.53;1.48;;;;;;;-145.68;36.21;72098.88;10412402;28;20208;-64
2023/07/13 10:05:05;;;;;;;4.78;1.40;;;;;;;-145.68;36.92;72122.88;10410752;28;20197;-63
2023/07/13 10:10:15;;;;;;;4.22;1.42;;;;;;;-145.68;36.18;71897.09;10412029;28;20223;-63
2023/07/13 10:15:18;;;;;;;2.28;1.30;;;;;;;-145.68;34.81;71719.25;10411819;28;20192;-64
2023/07/13 10:20:20;;;;;;;3.97;1.20;;;;;;;-145.68;33.39;71699.28;10393855;28;20215;-64
2023/07/13 10:25:23;;;;;;;3.70;1.40;;;;;;;-145.68;35.67;71945.03;10411635;28;20200;-63
2023/07/13 10:30:33;;;;;;;3.95;1.50;;;;;;;-145.68;36.04;71967.00;10393525;28;20228;-64
2023/07/13 10:35:34;;;;;;;6.40;1.40;;;;;;;-145.68;35.89;71961.03;10392271;28;20683;-64
2023/07/13 10:40:44;;;;;;;3.47;1.50;;;;;;;-145.68;35.69;71877.09;10431691;22;21644;-66
2023/07/13 10:45:48;;;;;;;2.97;1.38;;;;;;;-145.68;33.72;71713.28;10420548;28;20211;-70
2023/07/13 10:50:52;;;;;;;3.60;1.25;;;;;;;-145.68;33.75;71677.31;10408457;28;20294;-69
2023/07/13 10:55:53;;;;;;;2.80;1.25;;;;;;;-145.68;34.20;71829.16;10409038;28;20184;-70
2023/07/13 11:01:05;;;;;;;4.95;1.52;;;;;;;-145.68;33.71;71807.19;10410172;28;20231;-70
2023/07/13 11:06:14;;;;;;;3.38;1.20;;;;;;;-145.68;35.19;71953.03;10409369;28;20204;-68
2023/07/13 11:11:25;;;;;;;3.47;1.50;;;;;;;-145.68;34.21;71861.13;10408608;28;20239;-70
2023/07/13 11:16:38;;;;;;;5.30;1.38;;;;;;;-145.68;34.95;72104.88;10409606;28;20196;-70
2023/07/13 11:22:10;;;;;;;2.85;1.00;;;;;;;-145.68;37.86;72158.84;10424689;28;20219;-70
2023/07/13 11:27:35;;;;;;;6.88;1.30;;;;;;;-145.68;35.81;71951.03;10430499;28;20220;-69
2023/07/13 11:32:36;;;;;;;5.57;1.38;;;;;;;-145.68;35.99;71921.06;10449607;28;20207;-68
2023/07/13 11:37:38;;;;;;;4.18;1.40;;;;;;;-145.68;34.15;71669.31;10450647;28;20195;-68
2023/07/13 11:42:38;;;;;;;8.90;1.48;;;;;;;-145.68;34.88;72026.97;10412796;28;20624;-69
2023/07/13 11:47:40;;;;;;;3.00;1.58;;;;;;;-145.68;36.29;71969.00;10408025;28;20225;-69
2023/07/13 11:52:40;;;;;;;3.53;1.30;;;;;;;-145.68;34.04;71737.25;10408701;28;20690;-70
2023/07/13 11:57:46;;;;;;;2.08;1.17;;;;;;;-145.68;33.61;71731.25;10409303;28;20180;-69
2023/07/13 12:02:49;;;;;;;11.27;1.25;;;;;;;-145.68;32.98;71605.38;10415167;28;20258;-69
2023/07/13 12:07:50;;;;;;;4.00;1.52;;;;;;;-145.68;31.91;71659.34;10415189;28;20217;-68
2023/07/13 12:13:00;;;;;;;3.50;1.05;;;;;;;-145.68;32.26;71603.38;10414922;28;20752;-68
2023/07/13 12:18:00;;;;;;;6.07;1.38;;;;;;;-145.68;31.20;71471.53;10416391;28;20200;-69
2023/07/13 12:23:02;;;;;;;3.80;1.25;;;;;;;-145.68;31.44;71563.44;10416248;28;20215;-69
2023/07/13 12:28:23;;;;;;;4.60;1.60;;;;;;;-145.68;33.72;71875.09;10416500;28;20256;-69
2023/07/13 12:33:24;;;;;;;3.38;1.38;;;;;;;-145.68;33.39;71945.03;10414430;28;20574;-68
2023/07/13 12:38:25;;;;;;;2.92;1.15;;;;;;;-145.68;32.60;71693.28;10414061;28;20235;-69
2023/07/13 12:43:27;;;;;;;2.60;1.52;;;;;;;-145.68;33.36;71909.06;10412465;28;20228;-68
2023/07/13 12:48:28;;;;;;;2.58;1.15;;;;;;;-145.68;32.88;71777.22;10414494;28;20308;-68
2023/07/13 12:53:33;;;;;;;2.63;1.20;;;;;;;-145.68;31.44;71525.47;10414963;28;20223;-68
2023/07/13 12:58:37;;;;;;;4.18;1.60;;;;;;;-145.68;32.41;71745.25;10414229;28;20647;-68
2023/07/13 13:03:41;;;;;;;3.38;1.25;;;;;;;-145.68;33.05;71709.28;10430326;28;20225;-68
2023/07/13 13:08:42;;;;;;;5.60;1.42;;;;;;;-145.68;30.54;71449.56;10414251;28;20223;-69
2023/07/13 13:13:43;;;;;;;5.07;1.60;;;;;;;-145.68;30.32;71551.44;10413746;28;20629;-68
2023/07/13 13:18:44;;;;;;;4.97;1.27;;;;;;;-145.68;30.54;71425.59;10412828;28;20212;-68
2023/07/13 13:23:45;;;;;;;5.20;1.40;;;;;;;-145.68;29.72;71387.63;10411615;28;20208;-69
2023/07/13 13:28:47;;;;;;;3.67;1.50;;;;;;;-145.68;30.55;71509.50;10413837;28;20252;-68
2023/07/13 13:33:48;;;;;;;7.18;1.45;;;;;;;-145.68;31.15;71595.41;10413127;28;20213;-69
2023/07/13 13:38:49;;;;;;;4.25;1.30;;;;;;;-145.68;30.25;71415.59;10413702;28;20196;-68
2023/07/13 13:43:50;;;;;;;5.68;1.60;;;;;;;-145.68;31.81;71787.19;10412528;28;20255;-69
2023/07/13 13:48:51;;;;;;;3.88;1.60;;;;;;;-145.68;30.33;71611.38;10411889;28;20582;-68
2023/07/13 13:53:53;;;;;;;4.45;1.30;;;;;;;-145.68;30.18;71505.50;10411659;28;20212;-69
2023/07/13 13:58:53;;;;;;;4.80;1.30;;;;;;;-145.68;31.46;71621.38;10412504;28;20213;-69
2023/07/13 14:03:53;;;;;;;6.07;1.52;;;;;;;-145.68;30.75;71601.41;10412535;28;20303;-69
2023/07/13 14:08:57;;;;;;;4.00;1.30;;;;;;;-145.68;29.76;71505.50;10411962;28;20611;-69
2023/07/13 14:13:58;;;;;;;8.25;1.60;;;;;;;-145.68;30.93;71653.34;10412118;28;20209;-69
2023/07/13 14:18:59;;;;;;;5.18;1.20;;;;;;;-145.68;30.52;71525.47;10410904;28;21016;-69
2023/07/13 14:24:00;;;;;;;5.10;1.45;;;;;;;-145.68;30.24;71479.53;10410529;28;20205;-69
2023/07/13 14:29:00;;;;;;;5.78;1.27;;;;;;;-145.68;28.80;71247.78;10411428;28;20216;-69
2023/07/13 14:34:01;;;;;;;2.88;1.27;;;;;;;-145.68;27.47;71058.00;10426486;28;20219;-69
2023/07/13 14:39:11;;;;;;;3.92;1.10;;;;;;;-145.68;27.65;71113.94;10411504;28;20299;-68
2023/07/13 14:44:16;;;;;;;3.03;1.33;;;;;;;-145.68;28.57;71349.66;10410656;28;20680;-69
2023/07/13 14:49:32;;;;;;;7.65;1.40;;;;;;;-145.68;29.83;71369.66;10410750;28;20664;-68
2023/07/13 14:54:33;;;;;;;8.55;1.17;;;;;;;-145.68;28.40;71223.81;10407984;28;20248;-69
2023/07/13 14:59:34;;;;;;;2.45;1.17;;;;;;;-145.68;27.77;71227.81;10410666;28;20193;-69
2023/07/13 15:04:34;;;;;;;5.93;1.38;;;;;;;-145.68;27.52;71141.91;10410508;28;20361;-69
2023/07/13 15:09:35;;;;;;;6.47;1.63;;;;;;;-145.68;26.90;71046.03;10409929;28;20215;-69
2023/07/13 15:14:35;;;;;;;4.15;1.67;;;;;;;-145.68;27.13;71091.97;10410376;28;20972;-69
2023/07/13 15:19:36;;;;;;;3.05;1.42;;;;;;;-145.68;28.00;71295.72;10409605;28;20192;-69
2023/07/13 15:24:37;;;;;;;6.60;1.15;;;;;;;-145.68;28.26;71181.88;10409003;28;20212;-69
2023/07/13 15:29:37;;;;;;;3.15;1.30;;;;;;;-145.68;27.96;71417.59;10409332;28;20220;-69
2023/07/13 15:34:38;;;;;;;2.33;1.20;;;;;;;-145.68;28.34;71343.69;10411299;28;20218;-69
2023/07/13 15:39:38;;;;;;;2.63;1.13;;;;;;;-145.68;27.75;71241.78;10418483;28;20179;-69
2023/07/13 15:44:38;;;;;;;1.70;1.00;;;;;;;-145.68;28.09;71335.69;10417431;28;20475;-68
2023/07/13 15:49:39;;;;;;;4.53;1.30;;;;;;;-145.68;27.22;71233.81;10417934;28;20604;-69
2023/07/13 15:54:39;;;;;;;2.78;1.00;;;;;;;-145.68;28.13;71403.63;10416863;28;20834;-68
2023/07/13 15:59:42;;;;;;;3.80;0.90;;;;;;;-145.68;29.49;71659.34;10415420;28;20189;-68
2023/07/13 16:04:42;;;;;;;1.23;1.05;;;;;;;-145.68;30.00;71735.25;10416833;28;20217;-68
2023/07/13 16:09:44;;;;;;;4.13;1.25;;;;;;;-145.68;30.15;71729.25;10416356;28;20213;-68
2023/07/13 16:14:44;;;;;;;3.78;1.15;;;;;;;-145.68;29.96;71735.25;10417319;28;20766;-68
2023/07/13 16:19:45;;;;;;;2.38;0.90;;;;;;;-145.68;30.50;71811.16;10416886;28;20189;-68
2023/07/13 16:24:46;;;;;;;4.75;0.98;;;;;;;-145.68;30.79;71913.06;10393167;28;20634;-68
2023/07/13 16:29:46;;;;;;;2.88;1.10;;;;;;;-145.68;30.45;71905.06;10376700;28;20221;-68
2023/07/13 16:34:48;;;;;;;1.30;0.82;;;;;;;-145.68;31.70;72020.97;10376514;28;20213;-68
2023/07/13 16:39:55;;;;;;;4.32;0.90;;;;;;;-145.68;31.26;71969.00;10375725;28;20687;-68
2023/07/13 16:44:56;;;;;;;1.30;0.82;;;;;;;-145.68;31.90;72046.94;10398258;22;20899;-65
2023/07/13 16:49:57;;;;;;;5.00;1.05;;;;;;;-145.68;32.18;72046.94;10374696;28;20699;-65
2023/07/13 16:54:58;;;;;;;3.60;0.90;;;;;;;-145.68;31.74;72030.94;10406745;28;20242;-65
2023/07/13 16:59:58;;;;;;;2.70;1.17;;;;;;;-145.68;31.85;72008.97;10416490;28;20180;-65
2023/07/13 17:04:59;;;;;;;3.95;1.02;;;;;;;-145.68;32.22;72048.94;10416304;28;20216;-65
2023/07/13 17:09:59;;;;;;;1.50;0.70;;;;;;;-145.68;32.05;72140.84;10415848;28;20594;-65
2023/07/13 17:15:01;;;;;;;1.58;1.00;;;;;;;-145.68;32.91;72188.81;10419099;28;20263;-63
2023/07/13 17:20:03;;;;;;;3.92;1.27;;;;;;;-145.68;32.51;72212.78;10415604;28;20242;-64
2023/07/13 17:25:12;;;;;;;4.50;1.00;;;;;;;-145.68;33.73;72266.72;10414365;28;20856;-64
2023/07/13 17:30:18;;;;;;;1.67;1.10;;;;;;;-145.68;33.22;72262.72;10415445;28;20702;-64
2023/07/13 17:35:27;;;;;;;7.22;1.02;;;;;;;-145.68;33.87;72304.69;10415097;28;20224;-65
2023/07/13 17:40:29;;;;;;;1.85;1.00;;;;;;;-145.68;34.43;72316.69;10413749;28;20177;-64
2023/07/13 17:45:30;;;;;;;3.63;1.20;;;;;;;-145.68;34.69;72360.66;10414554;28;20244;-65
2023/07/13 17:50:38;;;;;;;3.83;1.40;;;;;;;-145.68;34.91;72342.66;10429658;28;20231;-65
2023/07/13 17:55:38;;;;;;;9.15;1.40;;;;;;;-145.68;34.54;72324.69;10414141;28;20217;-64
2023/07/13 18:00:41;;;;;;;1.77;1.10;;;;;;;-145.68;35.15;72354.66;10413969;28;20184;-65
2023/07/13 18:05:42;;;;;;;2.60;1.10;;;;;;;-145.68;35.29;72388.63;10428929;28;20749;-64
2023/07/13 18:10:42;;;;;;;6.47;1.35;;;;;;;-145.68;35.92;72416.59;10413629;28;20228;-63
2023/07/13 18:15:42;;;;;;;1.95;1.33;;;;;;;-145.68;37.35;72480.53;10412785;28;20220;-64
2023/07/13 18:20:43;;;;;;;3.53;1.88;;;;;;;-145.68;37.48;72486.53;10411292;28;20185;-64
2023/07/13 18:25:45;;;;;;;2.47;1.38;;;;;;;-145.68;39.97;72592.44;10412572;28;20220;-63
2023/07/13 18:30:51;;;;;;;2.08;1.30;;;;;;;-145.68;40.62;72604.44;10412142;28;20772;-64
2023/07/13 18:35:52;;;;;;;3.88;1.65;;;;;;;-145.68;42.06;72728.34;10410994;28;20206;-63
2023/07/13 18:40:54;;;;;;;5.53;1.38;;;;;;;-145.68;42.50;72788.28;10412166;28;20188;-63
2023/07/13 18:45:59;;;;;;;1.92;1.42;;;;;;;-145.68;42.60;72856.22;10411518;28;20315;-64
2023/07/13 18:51:00;;;;;;;4.50;1.20;;;;;;;-145.68;44.22;72886.22;10410547;28;20196;-63
2023/07/13 18:56:00;;;;;;;1.75;1.10;;;;;;;-145.68;43.80;72954.16;10411259;28;20274;-64
2023/07/13 19:01:02;;;;;;;6.25;1.50;;;;;;;-145.68;45.07;73030.09;10410629;28;20274;-64
2023/07/13 19:06:05;;;;;;;5.25;1.15;;;;;;;-145.68;44.70;73008.13;10410339;28;20251;-63
2023/07/13 19:11:10;;;;;;;3.30;1.42;;;;;;;-145.68;46.29;73090.06;10410365;28;20543;-63
2023/07/13 19:16:13;;;;;;;1.98;1.40;;;;;;;-145.68;47.11;73112.03;10409816;28;20196;-64
2023/07/13 19:21:25;;;;;;;1.35;1.02;;;;;;;-145.68;47.54;73184.00;10410761;28;20201;-64
2023/07/13 19:26:31;;;;;;;3.03;1.20;;;;;;;-145.68;48.55;73245.97;10410575;28;20208;-64
2023/07/13 19:31:34;;;;;;;4.78;1.17;;;;;;;-145.68;49.13;73275.94;10409161;28;20239;-63
2023/07/13 19:36:35;;;;;;;2.30;1.27;;;;;;;-145.68;49.82;73277.94;10410660;28;20191;-63
2023/07/13 19:41:36;;;;;;;3.78;1.30;;;;;;;-145.68;51.51;73329.91;10408975;28;20236;-64
2023/07/13 19:46:38;;;;;;;2.75;1.63;;;;;;;-145.68;51.33;73307.91;10410234;28;20263;-62
2023/07/13 19:51:38;;;;;;;2.70;1.55;;;;;;;-145.68;51.09;73303.91;10410269;28;20290;-63
2023/07/13 19:56:40;;;;;;;5.15;1.60;;;;;;;-145.68;50.98;73309.91;10410090;28;20684;-63
2023/07/13 20:01:40;;;;;;;2.42;1.60;;;;;;;-145.68;51.29;73325.91;10410038;28;20208;-63
2023/07/13 20:06:40;;;;;;;3.17;1.48;;;;;;;-145.68;51.08;73327.91;10409767;28;20221;-63
2023/07/13 20:11:41;;;;;;;2.35;1.60;;;;;;;-145.68;51.28;73345.88;10409862;28;20217;-63
2023/07/13 20:16:41;;;;;;;1.83;1.35;;;;;;;-145.68;51.18;73345.88;10409979;28;20750;-64
2023/07/13 20:21:43;;;;;;;2.38;1.25;;;;;;;-145.68;51.46;73363.88;10412953;28;20208;-64
2023/07/13 20:26:47;;;;;;;3.38;1.50;;;;;;;-145.68;51.58;73377.88;10417214;28;20998;-63
2023/07/13 20:31:47;;;;;;;3.33;1.33;;;;;;;-145.68;51.89;73397.84;10416971;28;20208;-63
2023/07/13 20:36:48;;;;;;;3.92;1.30;;;;;;;-145.68;52.44;73429.84;10416873;28;20193;-63
2023/07/13 20:41:49;;;;;;;2.35;1.50;;;;;;;-145.68;52.56;73437.84;10416098;28;20240;-63
2023/07/13 20:46:49;;;;;;;4.03;1.70;;;;;;;-145.68;53.10;73455.81;10416315;28;20223;-64
2023/07/13 20:51:51;;;;;;;5.03;1.60;;;;;;;-145.68;53.76;73481.81;10416095;28;20216;-64
2023/07/13 20:56:51;;;;;;;3.92;1.50;;;;;;;-145.68;54.05;73491.81;10414584;28;20197;-64
2023/07/13 21:01:51;;;;;;;3.15;1.52;;;;;;;-145.68;54.48;73509.78;10401893;28;20209;-63
2023/07/13 21:06:52;;;;;;;2.53;1.50;;;;;;;-145.68;54.58;73521.78;10374366;28;20216;-63
2023/07/13 21:11:52;;;;;;;3.70;1.50;;;;;;;-145.68;55.08;73527.78;10374781;28;20221;-64
2023/07/13 21:16:52;;;;;;;3.42;1.63;;;;;;;-145.68;55.16;73541.78;10374713;28;20200;-64
2023/07/13 21:21:53;;;;;;;7.95;1.63;;;;;;;-145.68;55.49;73569.75;10374447;28;20209;-63
2023/07/13 21:26:53;;;;;;;5.15;1.60;;;;;;;-145.68;56.03;73579.75;10374502;28;20223;-63
2023/07/13 21:31:54;;;;;;;1.90;1.50;;;;;;;-145.68;56.51;73601.72;10373457;28;20711;-63
2023/07/13 21:36:58;;;;;;;2.33;1.27;;;;;;;-145.68;56.34;73611.72;10374242;28;20193;-63
2023/07/13 21:42:01;;;;;;;3.15;1.60;;;;;;;-145.68;57.18;73629.72;10373490;28;20233;-64
2023/07/13 21:47:01;;;;;;;6.25;1.33;;;;;;;-145.68;57.97;73659.69;10373609;28;20225;-63
2023/07/13 21:52:04;;;;;;;2.85;1.33;;;;;;;-145.68;58.76;73675.69;10373475;28;20205;-64
2023/07/13 21:57:12;;;;;;;2.25;1.60;;;;;;;-145.68;59.96;73705.69;10372108;28;20223;-63
2023/07/13 22:02:12;;;;;;;3.22;1.52;;;;;;;-145.68;60.51;73723.66;10371956;28;20232;-63
2023/07/13 22:07:13;;;;;;;3.65;2.08;;;;;;;-145.68;60.95;73729.66;10373175;28;20229;-62
2023/07/13 22:12:13;;;;;;;4.45;1.63;;;;;;;-145.68;61.21;73735.66;10371667;28;20223;-63
2023/07/13 22:17:14;;;;;;;4.13;1.65;;;;;;;-145.68;62.32;73775.63;10372694;28;20212;-63
2023/07/13 22:22:14;;;;;;;6.05;1.83;;;;;;;-145.68;63.10;73771.63;10372320;28;20205;-64
2023/07/13 22:27:16;;;;;;;2.75;1.42;;;;;;;-145.68;64.12;73795.63;10372740;28;20229;-64
2023/07/13 22:32:17;;;;;;;3.58;1.70;;;;;;;-145.68;64.69;73799.63;10371952;28;20607;-64
2023/07/13 22:37:18;;;;;;;2.80;1.67;;;;;;;-145.68;65.04;73799.63;10371905;28;20189;-64
2023/07/13 22:42:18;;;;;;;9.52;2.17;;;;;;;-145.68;65.55;73807.63;10391784;23;20252;-68
2023/07/13 22:47:19;;;;;;;3.20;1.50;;;;;;;-145.68;66.15;73811.63;10367999;28;20221;-68